Terminal Aerodrome Forecast
Issued by NWS Milwaukee/Sullivan, WI

Home | Current Version | Previous Version | Text Only | Print | Product List | Glossary On
Versions: 1 2 3 4 5 6 7 8 9 10 11 12 13 14 15 16 17 18 19 20 21 22 23 24 25 26 27 28 29 30 31 32 33
000
FTUS43 KMKX 232320
TAFMKE
TAF
KMKE 232320Z 2400/2506 03015G24KT P6SM -RA BKN020 OVC035
     FM240300 04017G24KT 5SM RA OVC010
     FM240600 04017G26KT 3SM RA OVC005
     FM240900 05020G30KT 2SM RA VCTS OVC004CB
     FM241100 05017G27KT 3SM -RA OVC003
     FM242000 03012KT 2SM -SHRA OVC005
     FM250200 33009KT 2SM -RA BKN003
     FM250500 30009KT 3SM -SN OVC003=

USA.gov is the U.S. government's official web portal to all federal, state and local government web resources and services.